createdAt,value
2023-05-19T00:00:29.164Z,9.81
2023-05-19T00:03:22.138Z,9.79
2023-05-19T00:05:54.003Z,9.77
2023-05-19T00:08:25.015Z,9.75
2023-05-19T00:10:54.231Z,9.72
2023-05-19T00:13:24.031Z,9.69
2023-05-19T00:15:53.436Z,9.66
2023-05-19T00:18:23.629Z,9.63
2023-05-19T00:20:53.068Z,9.59
2023-05-19T00:23:21.830Z,9.55
2023-05-19T00:25:50.417Z,9.50
2023-05-19T00:28:19.329Z,9.45
2023-05-19T00:30:48.608Z,9.39
2023-05-19T00:33:17.624Z,9.35
2023-05-19T00:35:46.402Z,9.29
2023-05-19T00:38:15.287Z,9.23
2023-05-19T00:40:44.071Z,9.18
2023-05-19T00:43:14.009Z,9.13
2023-05-19T00:45:42.882Z,9.08
2023-05-19T00:48:12.708Z,9.03
2023-05-19T00:50:42.005Z,8.99
2023-05-19T00:53:10.888Z,8.95
2023-05-19T00:55:41.538Z,8.92
2023-05-19T00:58:11.559Z,8.90
2023-05-19T01:00:41.087Z,8.89
2023-05-19T01:03:13.743Z,8.89
2023-05-19T01:05:45.170Z,8.88
2023-05-19T01:08:14.287Z,8.87
2023-05-19T01:10:43.246Z,8.87
2023-05-19T01:13:12.569Z,8.88
2023-05-19T01:16:08.387Z,8.89
2023-05-19T01:18:48.340Z,8.90
2023-05-19T01:21:39.476Z,8.91
2023-05-19T01:24:18.574Z,8.91
2023-05-19T01:27:04.651Z,8.92
2023-05-19T01:29:55.070Z,8.92
2023-05-19T01:32:24.818Z,8.92
2023-05-19T01:34:54.396Z,8.92
2023-05-19T01:37:24.513Z,8.91
2023-05-19T01:39:54.008Z,8.92
2023-05-19T01:42:23.092Z,8.92
2023-05-19T01:44:52.415Z,8.92
2023-05-19T01:47:21.399Z,8.91
2023-05-19T01:49:50.371Z,8.90
2023-05-19T01:52:19.178Z,8.89
2023-05-19T01:54:47.983Z,8.89
2023-05-19T01:57:23.827Z,8.88
2023-05-19T02:00:25.473Z,8.88
2023-05-19T02:03:16.477Z,8.89
2023-05-19T02:06:07.284Z,8.89
2023-05-19T02:08:59.540Z,8.90
2023-05-19T02:11:43.464Z,8.90
2023-05-19T02:14:23.514Z,8.90
2023-05-19T02:16:53.239Z,8.92
2023-05-19T02:19:33.643Z,8.93
2023-05-19T02:22:03.667Z,8.94
2023-05-19T02:24:32.516Z,8.95
2023-05-19T02:27:01.645Z,8.97
2023-05-19T02:29:30.791Z,8.97
2023-05-19T02:32:01.395Z,8.97
2023-05-19T02:34:30.313Z,8.97
2023-05-19T02:36:59.104Z,8.96
2023-05-19T02:39:29.947Z,8.95
2023-05-19T02:41:58.953Z,8.92
2023-05-19T02:44:28.642Z,8.91
2023-05-19T02:46:58.958Z,8.91
2023-05-19T02:49:31.127Z,8.90
2023-05-19T02:52:00.143Z,8.91
2023-05-19T02:54:33.977Z,8.91
2023-05-19T02:57:03.011Z,8.90
2023-05-19T02:59:32.745Z,8.89
2023-05-19T03:02:02.433Z,8.90
2023-05-19T03:04:31.853Z,8.90
2023-05-19T03:07:00.772Z,8.90
2023-05-19T03:09:29.619Z,8.90
2023-05-19T03:12:04.207Z,8.91
2023-05-19T03:14:34.699Z,8.93
2023-05-19T03:17:04.924Z,8.94
2023-05-19T03:19:33.913Z,8.95
2023-05-19T03:22:03.000Z,8.96
2023-05-19T03:24:33.315Z,8.98
2023-05-19T03:27:03.131Z,8.98
2023-05-19T03:29:33.257Z,9.00
2023-05-19T03:32:02.373Z,9.02
2023-05-19T03:34:33.299Z,9.04
2023-05-19T03:37:02.160Z,9.06
2023-05-19T03:39:31.277Z,9.09
2023-05-19T03:42:00.267Z,9.11
2023-05-19T03:44:29.343Z,9.14
2023-05-19T03:46:58.366Z,9.17
2023-05-19T03:49:46.272Z,9.21
2023-05-19T03:52:45.899Z,9.25
2023-05-19T03:55:24.741Z,9.28
2023-05-19T03:57:53.618Z,9.33
2023-05-19T04:00:22.918Z,9.36
2023-05-19T04:02:52.865Z,9.40
2023-05-19T04:05:22.016Z,9.44
2023-05-19T04:07:50.816Z,9.47
2023-05-19T04:10:20.809Z,9.52
2023-05-19T04:12:50.282Z,9.55
2023-05-19T04:15:19.309Z,9.59
2023-05-19T04:17:48.166Z,9.63
2023-05-19T04:20:18.337Z,9.67
2023-05-19T04:22:47.222Z,9.72
2023-05-19T04:25:17.135Z,9.77
2023-05-19T04:27:46.561Z,9.82
2023-05-19T04:30:22.558Z,9.88
2023-05-19T04:32:52.840Z,9.95
2023-05-19T04:35:23.356Z,10.03
2023-05-19T04:37:55.018Z,10.09
2023-05-19T04:40:28.077Z,10.14
2023-05-19T04:42:58.526Z,10.21
2023-05-19T04:45:27.521Z,10.29
2023-05-19T04:47:59.017Z,10.37
2023-05-19T04:50:29.302Z,10.44
2023-05-19T04:52:59.912Z,10.52
2023-05-19T04:55:29.316Z,10.61
2023-05-19T04:57:58.137Z,10.68
2023-05-19T05:00:27.171Z,10.73
2023-05-19T05:03:00.997Z,10.78
2023-05-19T05:05:31.955Z,10.84
2023-05-19T05:08:00.932Z,10.90
2023-05-19T05:10:33.447Z,10.95
2023-05-19T05:13:02.706Z,10.99
2023-05-19T05:15:32.612Z,11.02
2023-05-19T05:18:03.428Z,11.05
2023-05-19T05:20:33.164Z,11.07
2023-05-19T05:23:02.929Z,11.09
2023-05-19T05:25:33.125Z,11.11
2023-05-19T05:28:05.773Z,11.13
2023-05-19T05:30:36.774Z,11.14
2023-05-19T05:33:06.815Z,11.14
2023-05-19T05:35:40.278Z,11.14
2023-05-19T05:38:12.100Z,11.14
2023-05-19T05:40:41.490Z,11.13
2023-05-19T05:43:10.675Z,11.12
2023-05-19T05:45:44.755Z,11.09
2023-05-19T05:48:14.610Z,11.07
2023-05-19T05:50:45.412Z,11.07
2023-05-19T05:53:19.950Z,11.07
2023-05-19T05:55:50.613Z,11.08
2023-05-19T05:58:21.836Z,11.10
2023-05-19T06:00:51.974Z,11.10
2023-05-19T06:03:27.149Z,11.11
2023-05-19T06:05:57.468Z,11.12
2023-05-19T06:08:26.638Z,11.13
2023-05-19T06:10:56.141Z,11.16
2023-05-19T06:13:26.353Z,11.18
2023-05-19T06:15:55.782Z,11.20
2023-05-19T06:18:33.662Z,11.20
2023-05-19T06:21:03.978Z,11.22
2023-05-19T06:23:33.385Z,11.25
2023-05-19T06:26:02.896Z,11.27
2023-05-19T06:28:32.411Z,11.30
2023-05-19T06:31:02.167Z,11.32
2023-05-19T06:33:43.828Z,11.35
2023-05-19T06:36:12.690Z,11.37
2023-05-19T06:38:42.525Z,11.40
2023-05-19T06:41:11.786Z,11.43
2023-05-19T06:43:40.701Z,11.46
2023-05-19T06:46:13.760Z,11.50
2023-05-19T06:48:42.578Z,11.55
2023-05-19T06:51:12.697Z,11.59
2023-05-19T06:53:42.099Z,11.62
2023-05-19T06:56:11.497Z,11.65
2023-05-19T06:58:42.053Z,11.67
2023-05-19T07:01:11.327Z,11.66
2023-05-19T07:03:44.909Z,11.65
2023-05-19T07:06:13.939Z,11.67
2023-05-19T07:08:43.425Z,11.67
2023-05-19T07:11:13.941Z,11.68
2023-05-19T07:13:43.049Z,11.69
2023-05-19T07:16:17.423Z,11.69
2023-05-19T07:18:47.010Z,11.67
2023-05-19T07:21:16.172Z,11.66
2023-05-19T07:23:45.377Z,11.64
2023-05-19T07:26:14.539Z,11.62
2023-05-19T07:28:44.289Z,11.60
2023-05-19T07:31:15.232Z,11.59
2023-05-19T07:33:44.193Z,11.57
2023-05-19T07:36:13.495Z,11.58
2023-05-19T07:38:42.603Z,11.57
2023-05-19T07:41:12.324Z,11.57
2023-05-19T07:43:41.320Z,11.57
2023-05-19T07:46:10.673Z,11.59
2023-05-19T07:48:39.619Z,11.63
2023-05-19T07:51:11.038Z,11.66
2023-05-19T07:53:41.356Z,11.71
2023-05-19T07:56:10.377Z,11.75
2023-05-19T07:58:39.494Z,11.77
2023-05-19T08:01:08.874Z,11.79
2023-05-19T08:03:39.181Z,11.80
2023-05-19T08:06:08.691Z,11.84
2023-05-19T08:08:38.147Z,11.89
2023-05-19T08:11:07.588Z,11.96
2023-05-19T08:13:37.312Z,12.04
2023-05-19T08:16:07.088Z,12.09
2023-05-19T08:18:35.951Z,12.15
2023-05-19T08:21:05.125Z,12.21
2023-05-19T08:23:34.226Z,12.27
2023-05-19T08:26:03.618Z,12.32
2023-05-19T08:28:32.690Z,12.34
2023-05-19T08:31:02.275Z,12.36
2023-05-19T08:33:31.299Z,12.35
2023-05-19T08:36:00.900Z,12.37
2023-05-19T08:38:30.013Z,12.43
2023-05-19T08:40:59.391Z,12.51
2023-05-19T08:43:28.919Z,12.61
2023-05-19T08:46:00.555Z,12.69
2023-05-19T08:48:31.176Z,12.73
2023-05-19T08:51:22.297Z,12.74
2023-05-19T08:53:52.415Z,12.76
2023-05-19T08:56:25.406Z,12.89
2023-05-19T08:58:54.929Z,13.07
2023-05-19T09:01:24.526Z,13.28
2023-05-19T09:03:53.888Z,13.47
2023-05-19T09:06:23.212Z,13.69
2023-05-19T09:08:52.120Z,13.90
2023-05-19T09:11:23.452Z,14.11
2023-05-19T09:13:52.775Z,14.32
2023-05-19T09:16:23.660Z,14.56
2023-05-19T09:18:57.590Z,14.81
2023-05-19T09:21:33.680Z,15.03
2023-05-19T09:24:06.818Z,15.20
2023-05-19T09:26:39.598Z,15.33
2023-05-19T09:29:13.362Z,15.46
2023-05-19T09:31:54.806Z,15.56
2023-05-19T09:34:25.400Z,15.65
2023-05-19T09:36:56.394Z,15.74
2023-05-19T09:39:26.575Z,15.78
2023-05-19T09:41:59.014Z,15.82
2023-05-19T09:44:31.980Z,15.80
2023-05-19T09:47:02.338Z,15.80
2023-05-19T09:49:33.183Z,15.82
2023-05-19T09:52:06.674Z,15.84
2023-05-19T09:54:37.553Z,15.90
2023-05-19T09:57:08.819Z,15.91
2023-05-19T09:59:39.491Z,15.88
2023-05-19T10:02:15.315Z,15.88
2023-05-19T10:04:44.865Z,15.91
2023-05-19T10:07:15.563Z,15.91
2023-05-19T10:09:44.732Z,15.88
2023-05-19T10:12:14.030Z,15.87
2023-05-19T10:14:43.136Z,15.89
2023-05-19T10:17:12.937Z,15.93
2023-05-19T10:19:42.229Z,15.95
2023-05-19T10:22:11.548Z,15.95
2023-05-19T10:24:40.641Z,15.94
2023-05-19T10:27:15.583Z,15.93
2023-05-19T10:29:50.083Z,15.90
2023-05-19T10:32:24.478Z,15.89
2023-05-19T10:35:13.268Z,15.92
2023-05-19T10:37:50.752Z,15.95
2023-05-19T10:40:23.653Z,15.95
2023-05-19T10:43:36.372Z,15.89
2023-05-19T10:46:06.830Z,15.76
2023-05-19T10:48:38.855Z,15.66
2023-05-19T10:51:12.488Z,15.55
2023-05-19T10:53:46.874Z,15.39
2023-05-19T10:56:34.464Z,15.27
2023-05-19T10:59:04.429Z,15.16
2023-05-19T11:01:35.394Z,15.08
2023-05-19T11:04:13.067Z,15.05
2023-05-19T11:06:52.170Z,15.05
2023-05-19T11:09:34.077Z,15.03
2023-05-19T11:12:08.014Z,14.99
2023-05-19T11:14:37.085Z,14.99
2023-05-19T11:17:14.883Z,14.98
2023-05-19T11:19:54.375Z,14.96
2023-05-19T11:22:27.741Z,14.93
2023-05-19T11:24:57.021Z,14.90
2023-05-19T11:27:33.964Z,14.88
2023-05-19T11:30:15.377Z,14.86
2023-05-19T11:32:45.136Z,14.84
2023-05-19T11:35:15.125Z,14.78
2023-05-19T11:37:43.908Z,14.70
2023-05-19T11:40:14.176Z,14.62
2023-05-19T11:42:43.306Z,14.57
2023-05-19T11:45:12.599Z,14.54
2023-05-19T11:48:00.256Z,14.53
2023-05-19T11:50:33.792Z,14.54
2023-05-19T11:53:02.871Z,14.58
2023-05-19T11:55:33.060Z,14.64
2023-05-19T11:58:04.695Z,14.68
2023-05-19T12:00:41.069Z,14.73
2023-05-19T12:03:10.684Z,14.76
2023-05-19T12:05:45.081Z,14.78
2023-05-19T12:08:14.314Z,14.78
2023-05-19T12:10:43.909Z,14.79
2023-05-19T12:13:13.327Z,14.77
2023-05-19T12:15:43.135Z,14.71
2023-05-19T12:18:12.869Z,14.65
2023-05-19T12:20:41.864Z,14.58
2023-05-19T12:23:11.050Z,14.50
2023-05-19T12:25:40.237Z,14.43
2023-05-19T12:28:09.434Z,14.36
2023-05-19T12:30:39.037Z,14.32
2023-05-19T12:33:10.528Z,14.29
2023-05-19T12:35:39.694Z,14.26
2023-05-19T12:38:11.161Z,14.23
2023-05-19T12:40:41.440Z,14.20
2023-05-19T12:43:21.546Z,14.20
2023-05-19T12:45:50.543Z,14.22
2023-05-19T12:48:23.133Z,14.23
2023-05-19T12:50:56.172Z,14.24
2023-05-19T12:53:27.149Z,14.26
2023-05-19T12:55:56.630Z,14.28
2023-05-19T12:58:27.122Z,14.33
2023-05-19T13:01:01.001Z,14.36
2023-05-19T13:03:30.979Z,14.37
2023-05-19T13:06:00.661Z,14.39
2023-05-19T13:08:31.088Z,14.41
2023-05-19T13:11:00.193Z,14.41
2023-05-19T13:13:29.280Z,14.40
2023-05-19T13:15:58.498Z,14.37
2023-05-19T13:18:28.194Z,14.34
2023-05-19T13:20:58.985Z,14.28
2023-05-19T13:23:29.277Z,14.22
2023-05-19T13:25:58.156Z,14.16
2023-05-19T13:28:27.295Z,14.13
2023-05-19T13:30:56.650Z,14.09
2023-05-19T13:33:25.724Z,14.11
2023-05-19T13:35:54.792Z,14.12
2023-05-19T13:38:24.465Z,14.09
2023-05-19T13:40:55.375Z,14.08
2023-05-19T13:43:24.353Z,14.07
2023-05-19T13:45:53.520Z,14.05
2023-05-19T13:48:22.702Z,14.05
2023-05-19T13:50:55.019Z,14.06
2023-05-19T13:53:24.341Z,14.06
2023-05-19T13:55:56.011Z,14.05
2023-05-19T13:58:25.285Z,14.05
2023-05-19T14:00:57.585Z,14.07
2023-05-19T14:03:27.554Z,14.07
2023-05-19T14:05:56.701Z,14.08
2023-05-19T14:08:26.965Z,14.14
2023-05-19T14:10:56.603Z,14.28
2023-05-19T14:13:33.035Z,14.46
2023-05-19T14:16:05.091Z,14.66
2023-05-19T14:18:34.947Z,14.81
2023-05-19T14:21:04.028Z,14.96
2023-05-19T14:23:33.226Z,15.09
2023-05-19T14:26:02.234Z,15.25
2023-05-19T14:28:31.322Z,15.36
2023-05-19T14:31:02.360Z,15.47
2023-05-19T14:33:35.461Z,15.55
2023-05-19T14:36:11.702Z,15.60
2023-05-19T14:38:44.221Z,15.64
2023-05-19T14:41:15.324Z,15.71
2023-05-19T14:43:45.203Z,15.80
2023-05-19T14:46:15.753Z,15.84
2023-05-19T14:48:44.760Z,15.84
2023-05-19T14:51:14.271Z,15.83
2023-05-19T14:53:43.569Z,15.83
2023-05-19T14:56:12.884Z,15.85
2023-05-19T14:58:42.573Z,15.83
2023-05-19T15:01:12.206Z,15.70
2023-05-19T15:03:41.851Z,15.54
2023-05-19T15:06:11.917Z,15.40
2023-05-19T15:08:42.338Z,15.30
2023-05-19T15:11:11.737Z,15.24
2023-05-19T15:13:41.141Z,15.20
2023-05-19T15:16:17.042Z,15.18
2023-05-19T15:18:47.321Z,15.17
2023-05-19T15:21:16.525Z,15.18
2023-05-19T15:23:46.274Z,15.17
2023-05-19T15:26:15.954Z,15.16
2023-05-19T15:28:45.242Z,15.14
2023-05-19T15:31:14.346Z,15.12
2023-05-19T15:33:43.774Z,15.12
2023-05-19T15:36:16.924Z,15.10
2023-05-19T15:38:46.030Z,15.08
2023-05-19T15:41:15.337Z,15.05
2023-05-19T15:43:48.548Z,15.02
2023-05-19T15:46:19.997Z,14.97
2023-05-19T15:48:48.882Z,14.93
2023-05-19T15:51:17.944Z,14.89
2023-05-19T15:53:48.241Z,14.87
2023-05-19T15:56:19.906Z,14.85
2023-05-19T15:58:56.509Z,14.80
2023-05-19T16:01:27.192Z,14.77
2023-05-19T16:03:56.532Z,14.76
2023-05-19T16:06:28.105Z,14.74
2023-05-19T16:08:59.716Z,14.71
2023-05-19T16:11:29.859Z,14.68
2023-05-19T16:14:00.525Z,14.67
2023-05-19T16:16:30.540Z,14.66
2023-05-19T16:19:00.123Z,14.64
2023-05-19T16:21:29.728Z,14.63
2023-05-19T16:23:58.723Z,14.61
2023-05-19T16:26:30.196Z,14.59
2023-05-19T16:28:59.185Z,14.55
2023-05-19T16:31:29.554Z,14.50
2023-05-19T16:34:00.226Z,14.47
2023-05-19T16:36:30.191Z,14.43
2023-05-19T16:38:59.201Z,14.40
2023-05-19T16:41:28.343Z,14.37
2023-05-19T16:43:58.482Z,14.35
2023-05-19T16:46:29.212Z,14.34
2023-05-19T16:49:01.834Z,14.32
2023-05-19T16:51:31.784Z,14.31
2023-05-19T16:54:01.280Z,14.30
2023-05-19T16:56:30.692Z,14.29
2023-05-19T16:59:00.403Z,14.27
2023-05-19T17:01:29.913Z,14.26
2023-05-19T17:04:00.034Z,14.25
2023-05-19T17:06:30.263Z,14.24
2023-05-19T17:08:59.889Z,14.24
2023-05-19T17:11:29.493Z,14.22
2023-05-19T17:13:59.356Z,14.19
2023-05-19T17:16:28.799Z,14.17
2023-05-19T17:18:58.107Z,14.16
2023-05-19T17:21:27.998Z,14.15
2023-05-19T17:23:57.673Z,14.13
2023-05-19T17:26:27.515Z,14.10
2023-05-19T17:28:57.530Z,14.10
2023-05-19T17:31:28.253Z,14.10
2023-05-19T17:33:58.616Z,14.08
2023-05-19T17:36:28.212Z,14.07
2023-05-19T17:38:57.788Z,14.06
2023-05-19T17:41:27.302Z,14.05
2023-05-19T17:43:57.617Z,14.03
2023-05-19T17:46:27.365Z,14.01
2023-05-19T17:48:57.505Z,13.98
2023-05-19T17:51:28.068Z,13.96
2023-05-19T17:53:59.418Z,13.95
2023-05-19T17:56:32.553Z,13.92
2023-05-19T17:59:02.386Z,13.90
2023-05-19T18:01:35.570Z,13.89
2023-05-19T18:04:07.468Z,13.87
2023-05-19T18:06:40.123Z,13.85
2023-05-19T18:09:14.070Z,13.83
2023-05-19T18:11:43.548Z,13.81
2023-05-19T18:14:13.845Z,13.79
2023-05-19T18:16:44.182Z,13.77
2023-05-19T18:19:14.082Z,13.76
2023-05-19T18:21:43.335Z,13.75
2023-05-19T18:24:12.748Z,13.73
2023-05-19T18:26:42.920Z,13.71
2023-05-19T18:29:12.668Z,13.68
2023-05-19T18:31:42.816Z,13.66
2023-05-19T18:34:14.497Z,13.64
2023-05-19T18:36:44.275Z,13.62
2023-05-19T18:39:15.568Z,13.59
2023-05-19T18:41:48.964Z,13.56
2023-05-19T18:44:18.639Z,13.52
2023-05-19T18:46:47.818Z,13.51
2023-05-19T18:49:18.170Z,13.48
2023-05-19T18:51:49.077Z,13.47
2023-05-19T18:54:20.186Z,13.45
2023-05-19T18:56:50.886Z,13.44
2023-05-19T18:59:20.349Z,13.42
2023-05-19T19:01:49.985Z,13.41
2023-05-19T19:04:19.680Z,13.39
2023-05-19T19:06:50.703Z,13.38
2023-05-19T19:09:23.503Z,13.37
2023-05-19T19:11:52.910Z,13.36
2023-05-19T19:14:23.123Z,13.36
2023-05-19T19:16:54.870Z,13.35
2023-05-19T19:19:28.820Z,13.34
2023-05-19T19:22:03.168Z,13.33
2023-05-19T19:24:33.182Z,13.30
2023-05-19T19:27:03.552Z,13.28
2023-05-19T19:29:33.042Z,13.26
2023-05-19T19:32:02.839Z,13.24
2023-05-19T19:34:32.913Z,13.22
2023-05-19T19:37:03.272Z,13.20
2023-05-19T19:39:33.130Z,13.18
2023-05-19T19:42:02.532Z,13.16
2023-05-19T19:44:31.832Z,13.15
2023-05-19T19:47:01.218Z,13.12
2023-05-19T19:49:30.534Z,13.10
2023-05-19T19:52:00.460Z,13.09
2023-05-19T19:54:29.631Z,13.08
2023-05-19T19:56:59.990Z,13.06
2023-05-19T19:59:30.586Z,13.06
2023-05-19T20:01:59.811Z,13.04
2023-05-19T20:04:29.721Z,13.03
2023-05-19T20:06:59.114Z,13.02
2023-05-19T20:09:29.574Z,13.02
2023-05-19T20:11:58.626Z,13.00
2023-05-19T20:14:28.334Z,13.00
2023-05-19T20:17:02.391Z,12.99
2023-05-19T20:19:37.748Z,12.97
2023-05-19T20:22:07.357Z,12.96
2023-05-19T20:24:37.119Z,12.95
2023-05-19T20:27:07.948Z,12.95
2023-05-19T20:29:37.780Z,12.94
2023-05-19T20:32:07.194Z,12.94
2023-05-19T20:34:36.711Z,12.93
2023-05-19T20:37:06.576Z,12.92
2023-05-19T20:39:35.814Z,12.92
2023-05-19T20:42:05.723Z,12.92
2023-05-19T20:44:34.795Z,12.92
2023-05-19T20:47:04.719Z,12.93
2023-05-19T20:49:33.915Z,12.93
2023-05-19T20:52:03.328Z,12.94
2023-05-19T20:54:32.718Z,12.93
2023-05-19T20:57:06.848Z,12.93
2023-05-19T20:59:36.865Z,12.92
2023-05-19T21:02:08.069Z,12.90
2023-05-19T21:04:37.112Z,12.89
2023-05-19T21:07:06.670Z,12.86
2023-05-19T21:09:35.898Z,12.84
2023-05-19T21:12:05.397Z,12.83
2023-05-19T21:14:34.497Z,12.81
2023-05-19T21:17:03.757Z,12.79
2023-05-19T21:19:33.046Z,12.78
2023-05-19T21:22:02.578Z,12.77
2023-05-19T21:24:32.097Z,12.75
2023-05-19T21:27:02.337Z,12.74
2023-05-19T21:29:31.516Z,12.73
2023-05-19T21:32:01.677Z,12.71
2023-05-19T21:34:30.742Z,12.70
2023-05-19T21:37:00.472Z,12.69
2023-05-19T21:39:30.361Z,12.68
2023-05-19T21:42:00.111Z,12.67
2023-05-19T21:44:31.721Z,12.66
2023-05-19T21:47:02.001Z,12.65
2023-05-19T21:49:31.757Z,12.64
2023-05-19T21:52:01.356Z,12.64
2023-05-19T21:54:30.657Z,12.64
2023-05-19T21:56:59.997Z,12.62
2023-05-19T21:59:29.356Z,12.62
2023-05-19T22:01:58.879Z,12.60
2023-05-19T22:04:31.945Z,12.59
2023-05-19T22:07:01.285Z,12.58
2023-05-19T22:09:30.524Z,12.58
2023-05-19T22:11:59.756Z,12.56
2023-05-19T22:14:29.131Z,12.55
2023-05-19T22:16:58.257Z,12.55
2023-05-19T22:19:27.373Z,12.55
2023-05-19T22:22:09.798Z,12.54
2023-05-19T22:24:42.774Z,12.54
2023-05-19T22:27:12.242Z,12.53
2023-05-19T22:29:41.238Z,12.53
2023-05-19T22:32:12.596Z,12.52
2023-05-19T22:34:42.652Z,12.52
2023-05-19T22:37:11.804Z,12.51
2023-05-19T22:39:40.693Z,12.51
2023-05-19T22:42:09.903Z,12.50
2023-05-19T22:44:38.977Z,12.50
2023-05-19T22:47:13.918Z,12.48
2023-05-19T22:49:43.422Z,12.48
2023-05-19T22:52:13.730Z,12.47
2023-05-19T22:54:44.003Z,12.46
2023-05-19T22:57:13.275Z,12.45
2023-05-19T22:59:42.871Z,12.45
2023-05-19T23:02:11.969Z,12.44
2023-05-19T23:04:40.853Z,12.43
2023-05-19T23:07:10.546Z,12.43
2023-05-19T23:09:39.971Z,12.43
2023-05-19T23:12:08.939Z,12.43
2023-05-19T23:14:38.350Z,12.41
2023-05-19T23:17:07.255Z,12.42
2023-05-19T23:19:37.467Z,12.41
2023-05-19T23:22:06.165Z,12.40
2023-05-19T23:24:35.238Z,12.39
2023-05-19T23:27:04.061Z,12.38
2023-05-19T23:29:33.031Z,12.38
2023-05-19T23:32:01.834Z,12.37
2023-05-19T23:34:32.237Z,12.37
2023-05-19T23:37:01.130Z,12.36
2023-05-19T23:39:29.832Z,12.35
2023-05-19T23:41:58.817Z,12.34
2023-05-19T23:44:28.021Z,12.34
2023-05-19T23:46:56.828Z,12.32
2023-05-19T23:49:26.940Z,12.32
2023-05-19T23:51:56.043Z,12.32
2023-05-19T23:54:24.821Z,12.32
2023-05-19T23:56:53.801Z,12.32
2023-05-19T23:59:22.909Z,12.33
